Impacts METAR Board
IDs:

KLGA - New York/La Guardia, NY, US

Updated at: 1600 UTC 16 Feb 2019
Potential Impact None Slight Moderate High
Time 16/04Z 16/05Z 16/06Z 16/07Z 16/08Z 16/09Z 16/10Z 16/11Z 16/12Z 16/13Z 16/14Z 16/15Z 16/16Z
Temp55 47 44 42 40 39 38 36 35 35 35 36 38
Dewpt31 28 26 24 25 23 21 18 18 17 17 18 18
Altim29.67 29.70 29.72 29.75 29.75 29.76 29.79 29.81 29.83 29.86 29.87 29.87 29.88
VIS10 10 10 10 10 10 10 10 10 10 10 10 10
CIG160 160 200 200 230 230 150 160 160 250 -- -- --
CoverOVCOVCOVCOVCBKNBKNBKNBKNBKNBKNSCTFEWFEW
FltCatVFRVFRVFRVFRVFRVFRVFRVFRVFRVFRVFRVFRVFR
WX--------------------------
WDir290320310320310320330330320310340320310
WSpd13 17 11 14 11 11 14 16 15 15 12 16 14
WGst20 26 -- 19 -- -- -- 21 -- -- -- 20 --
Raw hourly METARs
KLGA 160351Z 29013G20KT 10SM FEW070 BKN160 OVC250 13/M01 A2967 RMK AO2 SLP046 T01281006
KLGA 160451Z 32017G26KT 10SM FEW075 BKN160 OVC250 08/M02 A2970 RMK AO2 PK WND 32026/0444 SLP058 T00831022 401330050
KLGA 160551Z 31011KT 10SM SCT140 OVC200 07/M03 A2972 RMK AO2 SLP064 T00671033 10133 20067 53021
KLGA 160651Z 32014G19KT 10SM SCT140 OVC200 06/M04 A2975 RMK AO2 SLP072 T00561044
KLGA 160751Z 31011KT 10SM FEW140 BKN230 04/M04 A2975 RMK AO2 SLP072 T00441039
KLGA 160851Z 32011KT 10SM SCT190 BKN230 04/M05 A2976 RMK AO2 SLP079 T00391050 51015
KLGA 160951Z 33014KT 10SM BKN150 BKN250 03/M06 A2979 RMK AO2 SLP087 T00331061
KLGA 161051Z 33016G21KT 10SM BKN160 BKN250 02/M08 A2981 RMK AO2 SLP093 T00221078
KLGA 161151Z 32015KT 10SM BKN160 BKN250 02/M08 A2983 RMK AO2 SLP101 T00171078 10067 20017 51022
KLGA 161251Z 31015KT 10SM SCT160 BKN250 02/M08 A2986 RMK AO2 SLP110 T00171083
KLGA 161351Z 34012KT 10SM FEW150 SCT250 02/M08 A2987 RMK AO2 PK WND 33026/1331 SLP115 T00171083
KLGA 161451Z 32016G20KT 10SM FEW040 FEW150 FEW250 02/M08 A2987 RMK AO2 SLP114 T00221078 50013
KLGA 161551Z 31014KT 10SM FEW045 FEW250 03/M08 A2988 RMK AO2 SLP116 T00331078



Page loaded:  16:28 UTC  |   08:28 AM Pacific  |   09:28 AM Mountain  |   10:28 AM Central  |   11:28 AM Eastern

 

ADVISORIES

FORECASTS

FORECASTS

OBSERVATIONS

USER TOOLS

ABOUT US